createdAt,value
2016-04-18T00:00:03.693Z,5.15
2016-04-18T00:00:13.693Z,5.19
2016-04-18T00:00:23.693Z,5.19
2016-04-18T00:00:33.693Z,5.16
2016-04-18T00:00:43.695Z,5.19
2016-04-18T00:00:53.710Z,5.13
2016-04-18T00:01:03.710Z,5.13
2016-04-18T00:01:13.710Z,5.16
2016-04-18T00:01:23.726Z,5.16
2016-04-18T00:01:33.726Z,5.15
2016-04-18T00:01:43.729Z,5.16
2016-04-18T00:01:53.729Z,5.13
2016-04-18T00:02:03.745Z,5.16
2016-04-18T00:02:13.745Z,5.08
2016-04-18T00:02:23.745Z,5.15
2016-04-18T00:02:33.745Z,5.1
2016-04-18T00:02:43.763Z,5.1
2016-04-18T00:02:53.763Z,5.18
2016-04-18T00:03:03.763Z,5.1
2016-04-18T00:03:13.763Z,5.13
2016-04-18T00:03:23.779Z,5.18
2016-04-18T00:03:33.779Z,5.16
2016-04-18T00:03:43.781Z,5.1
2016-04-18T00:03:53.797Z,5.1
2016-04-18T00:04:03.797Z,5.1
2016-04-18T00:04:13.797Z,5.13
2016-04-18T00:04:23.797Z,5.07
2016-04-18T00:04:33.797Z,5.08
2016-04-18T00:04:43.816Z,5.05
2016-04-18T00:04:53.816Z,5.05
2016-04-18T00:05:03.816Z,5.08
2016-04-18T00:05:13.816Z,5.15
2016-04-18T00:05:23.816Z,5.1
2016-04-18T00:05:33.832Z,5.15
2016-04-18T00:05:43.834Z,5.08
2016-04-18T00:05:53.834Z,5.15
2016-04-18T00:06:03.834Z,5.08
2016-04-18T00:06:13.849Z,5.05
2016-04-18T00:06:23.849Z,5.16
2016-04-18T00:06:33.849Z,5.13
2016-04-18T00:06:43.852Z,5.15
2016-04-18T00:06:53.868Z,5.12
2016-04-18T00:07:03.868Z,5.12
2016-04-18T00:07:13.868Z,5.18
2016-04-18T00:07:23.868Z,5.15
2016-04-18T00:07:33.884Z,5.08
2016-04-18T00:07:43.887Z,5.13
2016-04-18T00:07:53.887Z,5.12
2016-04-18T00:08:03.902Z,5.08
2016-04-18T00:08:13.902Z,5.08
2016-04-18T00:08:23.902Z,5.08
2016-04-18T00:08:33.902Z,5.08
2016-04-18T00:08:43.920Z,5.1
2016-04-18T00:08:53.998Z,5.16
2016-04-18T00:09:03.920Z,5.13
2016-04-18T00:09:13.920Z,5.08
2016-04-18T00:09:23.920Z,5.15
2016-04-18T00:09:33.936Z,5.08
2016-04-18T00:09:43.939Z,5.13
2016-04-18T00:09:53.939Z,5.13
2016-04-18T00:10:03.954Z,5.08
2016-04-18T00:10:13.954Z,5.07
2016-04-18T00:10:23.954Z,5.08
2016-04-18T00:10:33.954Z,5.13
2016-04-18T00:10:43.956Z,5.1
2016-04-18T00:10:53.972Z,5.05
2016-04-18T00:11:03.972Z,5.1
2016-04-18T00:11:13.972Z,5.12
2016-04-18T00:11:23.987Z,5.12
2016-04-18T00:11:33.987Z,4.97
2016-04-18T00:11:43.990Z,5
2016-04-18T00:11:53.990Z,5.04
2016-04-18T00:12:03.990Z,5.05
2016-04-18T00:12:14.006Z,5.08
2016-04-18T00:12:24.006Z,5
2016-04-18T00:12:34.006Z,5.04
2016-04-18T00:12:44.008Z,5.01
2016-04-18T00:12:54.024Z,5
2016-04-18T00:13:04.024Z,5.01
2016-04-18T00:13:14.024Z,5.01
2016-04-18T00:13:24.039Z,4.97
2016-04-18T00:13:34.039Z,5.01
2016-04-18T00:13:44.042Z,5.05
2016-04-18T00:13:54.042Z,5.01
2016-04-18T00:14:04.042Z,4.95
2016-04-18T00:14:14.058Z,4.98
2016-04-18T00:14:24.058Z,4.98
2016-04-18T00:14:34.058Z,5
2016-04-18T00:14:44.082Z,5.02
2016-04-18T00:14:54.098Z,4.97
2016-04-18T00:15:04.098Z,4.89
2016-04-18T00:15:14.098Z,4.87
2016-04-18T00:15:24.098Z,4.87
2016-04-18T00:15:34.113Z,4.95
2016-04-18T00:15:44.158Z,5
2016-04-18T00:15:54.158Z,4.94
2016-04-18T00:16:04.158Z,4.98
2016-04-18T00:16:14.174Z,4.97
2016-04-18T00:16:24.174Z,4.87
2016-04-18T00:16:34.174Z,4.97
2016-04-18T00:16:44.235Z,5.01
2016-04-18T00:16:54.235Z,5
2016-04-18T00:17:04.235Z,4.97
2016-04-18T00:17:14.235Z,4.94
2016-04-18T00:17:24.251Z,5.01
2016-04-18T00:17:34.251Z,4.86
2016-04-18T00:17:44.297Z,4.86
2016-04-18T00:17:54.297Z,4.97
2016-04-18T00:18:04.313Z,4.84
2016-04-18T00:18:14.313Z,4.89
2016-04-18T00:18:24.313Z,4.95
2016-04-18T00:18:34.313Z,4.9
2016-04-18T00:18:44.359Z,4.95
2016-04-18T00:18:54.374Z,4.9
2016-04-18T00:19:04.374Z,4.87
2016-04-18T00:19:14.374Z,4.97
2016-04-18T00:19:24.374Z,4.9
2016-04-18T00:19:34.390Z,4.79
2016-04-18T00:19:44.422Z,4.79
2016-04-18T00:19:54.422Z,4.86
2016-04-18T00:20:06.703Z,4.84
2016-04-18T00:20:16.672Z,4.86
2016-04-18T00:20:26.672Z,4.82
2016-04-18T00:20:36.672Z,4.89
2016-04-18T00:20:46.706Z,4.79
2016-04-18T00:20:56.706Z,4.82
2016-04-18T00:21:06.706Z,4.84
2016-04-18T00:21:16.706Z,4.83
2016-04-18T00:21:26.706Z,4.79
2016-04-18T00:21:36.721Z,4.82
2016-04-18T00:21:46.739Z,4.86
2016-04-18T00:21:56.739Z,4.79
2016-04-18T00:22:06.739Z,4.84
2016-04-18T00:22:16.755Z,4.87
2016-04-18T00:22:26.755Z,4.78
2016-04-18T00:22:36.755Z,4.84
2016-04-18T00:22:46.773Z,4.74
2016-04-18T00:22:56.788Z,4.64
2016-04-18T00:23:06.788Z,4.83
2016-04-18T00:23:16.788Z,4.75
2016-04-18T00:23:26.788Z,4.84
2016-04-18T00:23:36.804Z,4.79
2016-04-18T00:23:47.011Z,4.86
2016-04-18T00:23:56.870Z,4.83
2016-04-18T00:24:06.839Z,4.68
2016-04-18T00:24:16.839Z,4.74
2016-04-18T00:24:26.839Z,4.76
2016-04-18T00:24:36.839Z,4.79
2016-04-18T00:24:46.852Z,4.82
2016-04-18T00:24:56.867Z,4.82
2016-04-18T00:25:06.867Z,4.75
2016-04-18T00:25:16.867Z,4.74
2016-04-18T00:25:26.867Z,4.74
2016-04-18T00:25:36.883Z,4.75
2016-04-18T00:25:46.891Z,4.79
2016-04-18T00:25:56.891Z,4.66
2016-04-18T00:26:06.907Z,4.71
2016-04-18T00:26:16.907Z,4.67
2016-04-18T00:26:26.907Z,4.67
2016-04-18T00:26:36.907Z,4.74
2016-04-18T00:26:46.916Z,4.67
2016-04-18T00:26:56.931Z,4.7
2016-04-18T00:27:06.947Z,4.82
2016-04-18T00:27:16.931Z,4.7
2016-04-18T00:27:26.931Z,4.68
2016-04-18T00:27:36.947Z,4.67
2016-04-18T00:27:46.955Z,4.68
2016-04-18T00:27:56.955Z,4.68
2016-04-18T00:28:06.955Z,4.66
2016-04-18T00:28:16.970Z,4.67
2016-04-18T00:28:26.970Z,4.71
2016-04-18T00:28:36.970Z,4.74
2016-04-18T00:28:46.979Z,4.71
2016-04-18T00:28:56.995Z,4.7
2016-04-18T00:29:06.995Z,4.67
2016-04-18T00:29:16.995Z,4.71
2016-04-18T00:29:26.995Z,4.7
2016-04-18T00:29:37.011Z,4.67
2016-04-18T00:29:47.017Z,4.75
2016-04-18T00:29:57.017Z,4.63
2016-04-18T00:30:07.017Z,4.68
2016-04-18T00:30:17.032Z,4.7
2016-04-18T00:30:27.032Z,4.66
2016-04-18T00:30:37.032Z,4.7
2016-04-18T00:30:47.037Z,4.64
2016-04-18T00:30:57.053Z,4.7
2016-04-18T00:31:07.053Z,4.68
2016-04-18T00:31:17.053Z,4.74
2016-04-18T00:31:27.053Z,4.61
2016-04-18T00:31:37.069Z,4.7
2016-04-18T00:31:47.073Z,4.71
2016-04-18T00:31:57.073Z,4.71
2016-04-18T00:32:07.073Z,4.75
2016-04-18T00:32:17.088Z,4.66
2016-04-18T00:32:27.088Z,4.71
2016-04-18T00:32:37.088Z,4.67
2016-04-18T00:32:47.093Z,4.66
2016-04-18T00:32:57.109Z,4.63
2016-04-18T00:33:07.109Z,4.6
2016-04-18T00:33:17.109Z,4.57
2016-04-18T00:33:27.109Z,4.63
2016-04-18T00:33:37.124Z,4.64
2016-04-18T00:33:47.128Z,4.67
2016-04-18T00:33:57.128Z,4.68
2016-04-18T00:34:07.128Z,4.61
2016-04-18T00:34:17.128Z,4.66
2016-04-18T00:34:27.144Z,4.61
2016-04-18T00:34:37.144Z,4.71
2016-04-18T00:34:47.148Z,4.61
2016-04-18T00:34:57.164Z,4.67
2016-04-18T00:35:07.164Z,4.57
2016-04-18T00:35:17.164Z,4.63
2016-04-18T00:35:27.164Z,4.63
2016-04-18T00:35:37.179Z,4.61
2016-04-18T00:35:47.183Z,4.76
2016-04-18T00:35:57.183Z,4.68
2016-04-18T00:36:07.183Z,4.58
2016-04-18T00:36:17.183Z,4.58
2016-04-18T00:36:27.199Z,4.64
2016-04-18T00:36:37.199Z,4.6
2016-04-18T00:36:47.202Z,4.6
2016-04-18T00:36:57.202Z,4.63
2016-04-18T00:37:07.218Z,4.66
2016-04-18T00:37:17.218Z,4.68
2016-04-18T00:37:27.218Z,4.63
2016-04-18T00:37:37.218Z,4.57
2016-04-18T00:37:47.237Z,4.53
2016-04-18T00:37:57.237Z,4.56
2016-04-18T00:38:07.237Z,4.56
2016-04-18T00:38:17.237Z,4.52
2016-04-18T00:38:27.253Z,4.6
2016-04-18T00:38:37.253Z,4.61
2016-04-18T00:38:47.271Z,4.5
2016-04-18T00:38:57.271Z,4.57
2016-04-18T00:39:07.271Z,4.56
2016-04-18T00:39:17.271Z,4.57
2016-04-18T00:39:27.271Z,4.5
2016-04-18T00:39:37.287Z,4.56
2016-04-18T00:39:47.290Z,4.61
2016-04-18T00:39:57.290Z,4.63
2016-04-18T00:40:07.290Z,4.67
2016-04-18T00:40:17.290Z,4.64
2016-04-18T00:40:27.306Z,4.56
2016-04-18T00:40:37.306Z,4.58
2016-04-18T00:40:47.309Z,4.57
2016-04-18T00:40:57.309Z,4.6
2016-04-18T00:41:07.324Z,4.6
2016-04-18T00:41:17.324Z,4.6
2016-04-18T00:41:27.324Z,4.57
2016-04-18T00:41:37.324Z,4.58
2016-04-18T00:41:47.344Z,4.61
2016-04-18T00:41:57.344Z,4.64
2016-04-18T00:42:07.344Z,4.58
2016-04-18T00:42:17.344Z,4.6
2016-04-18T00:42:27.360Z,4.6
2016-04-18T00:42:37.360Z,4.56
2016-04-18T00:42:47.363Z,4.6
2016-04-18T00:42:57.363Z,4.52
2016-04-18T00:43:07.378Z,4.61
2016-04-18T00:43:17.378Z,4.66
2016-04-18T00:43:27.378Z,4.6
2016-04-18T00:43:37.394Z,4.58
2016-04-18T00:43:47.397Z,4.57
2016-04-18T00:43:57.397Z,4.6
2016-04-18T00:44:07.397Z,4.56
2016-04-18T00:44:17.412Z,4.58
2016-04-18T00:44:27.412Z,4.6
2016-04-18T00:44:37.412Z,4.58
2016-04-18T00:44:47.415Z,4.5
2016-04-18T00:44:57.431Z,4.53
2016-04-18T00:45:07.431Z,4.57
2016-04-18T00:45:17.431Z,4.58
2016-04-18T00:45:27.431Z,4.53
2016-04-18T00:45:37.431Z,4.58
2016-04-18T00:45:47.449Z,4.5
2016-04-18T00:45:57.449Z,4.5
2016-04-18T00:46:07.449Z,4.53
2016-04-18T00:46:17.449Z,4.56
2016-04-18T00:46:27.464Z,4.5
2016-04-18T00:46:37.464Z,4.56
2016-04-18T00:46:47.467Z,4.48
2016-04-18T00:46:57.467Z,4.56
2016-04-18T00:47:07.483Z,4.53
2016-04-18T00:47:17.483Z,4.46
2016-04-18T00:47:27.483Z,4.49
2016-04-18T00:47:37.483Z,4.52
2016-04-18T00:47:47.485Z,4.52
2016-04-18T00:47:57.501Z,4.46
2016-04-18T00:48:07.501Z,4.46
2016-04-18T00:48:17.516Z,4.45
2016-04-18T00:48:27.516Z,4.49
2016-04-18T00:48:37.516Z,4.53
2016-04-18T00:48:47.520Z,4.48
2016-04-18T00:48:57.520Z,4.5
2016-04-18T00:49:07.536Z,4.49
2016-04-18T00:49:17.536Z,4.5
2016-04-18T00:49:27.536Z,4.48
2016-04-18T00:49:37.536Z,4.46
2016-04-18T00:49:47.539Z,4.56
2016-04-18T00:49:57.554Z,4.46
2016-04-18T00:50:07.554Z,4.48
2016-04-18T00:50:17.554Z,4.48
2016-04-18T00:50:27.570Z,4.45
2016-04-18T00:50:37.570Z,4.46
2016-04-18T00:50:47.572Z,4.48
2016-04-18T00:50:57.572Z,4.53
2016-04-18T00:51:07.588Z,4.5
2016-04-18T00:51:17.588Z,4.5
2016-04-18T00:51:27.588Z,4.5
2016-04-18T00:51:37.603Z,4.5
2016-04-18T00:51:47.591Z,4.46
2016-04-18T00:51:57.606Z,4.49
2016-04-18T00:52:07.606Z,4.53
2016-04-18T00:52:17.606Z,4.49
2016-04-18T00:52:27.606Z,4.43
2016-04-18T00:52:37.622Z,4.5
2016-04-18T00:52:47.624Z,4.49
2016-04-18T00:52:57.624Z,4.53
2016-04-18T00:53:07.624Z,4.5
2016-04-18T00:53:17.640Z,4.46
2016-04-18T00:53:27.640Z,4.49
2016-04-18T00:53:37.640Z,4.53
2016-04-18T00:53:47.643Z,4.52
2016-04-18T00:53:57.658Z,4.45
2016-04-18T00:54:07.658Z,4.42
2016-04-18T00:54:17.658Z,4.48
2016-04-18T00:54:27.658Z,4.5
2016-04-18T00:54:37.674Z,4.36
2016-04-18T00:54:47.677Z,4.45
2016-04-18T00:54:57.677Z,4.4
2016-04-18T00:55:07.677Z,4.43
2016-04-18T00:55:17.692Z,4.52
2016-04-18T00:55:27.692Z,4.48
2016-04-18T00:55:37.692Z,4.42
2016-04-18T00:55:47.711Z,4.49
2016-04-18T00:55:57.711Z,4.5
2016-04-18T00:56:07.711Z,4.38
2016-04-18T00:56:17.727Z,4.46
2016-04-18T00:56:27.727Z,4.45
2016-04-18T00:56:37.727Z,4.5
2016-04-18T00:56:47.729Z,4.34
2016-04-18T00:56:57.729Z,4.45
2016-04-18T00:57:07.729Z,4.39
2016-04-18T00:57:17.744Z,4.34
2016-04-18T00:57:27.744Z,4.34
2016-04-18T00:57:37.744Z,4.34
2016-04-18T00:57:47.763Z,4.39
2016-04-18T00:57:57.763Z,4.39
2016-04-18T00:58:07.763Z,4.34
2016-04-18T00:58:17.763Z,4.36
2016-04-18T00:58:27.763Z,4.38
2016-04-18T00:58:37.779Z,4.34
2016-04-18T00:58:47.782Z,4.4
2016-04-18T00:58:57.782Z,4.36
2016-04-18T00:59:07.797Z,4.38
2016-04-18T00:59:17.782Z,4.38
2016-04-18T00:59:27.797Z,4.34
2016-04-18T00:59:37.797Z,4.34
2016-04-18T00:59:47.800Z,4.39
2016-04-18T00:59:57.816Z,4.36
2016-04-18T01:00:07.816Z,4.39
2016-04-18T01:00:17.816Z,4.39
2016-04-18T01:00:27.816Z,4.31
2016-04-18T01:00:37.816Z,4.4
2016-04-18T01:00:47.833Z,4.45
2016-04-18T01:00:57.833Z,4.39
2016-04-18T01:01:07.833Z,4.43
2016-04-18T01:01:17.849Z,4.36
2016-04-18T01:01:27.849Z,4.43
2016-04-18T01:01:37.849Z,4.39
2016-04-18T01:01:47.852Z,4.42
2016-04-18T01:01:57.868Z,4.32
2016-04-18T01:02:07.868Z,4.28
2016-04-18T01:02:17.883Z,4.3
2016-04-18T01:02:27.868Z,4.4
2016-04-18T01:02:37.868Z,4.39
2016-04-18T01:02:47.885Z,4.38
2016-04-18T01:02:57.885Z,4.39
2016-04-18T01:03:07.885Z,4.39
2016-04-18T01:03:17.901Z,4.36
2016-04-18T01:03:27.901Z,4.36
2016-04-18T01:03:37.901Z,4.36
2016-04-18T01:03:47.904Z,4.42
2016-04-18T01:03:57.920Z,4.34
2016-04-18T01:04:07.920Z,4.31
2016-04-18T01:04:17.935Z,4.32
2016-04-18T01:04:27.935Z,4.32
2016-04-18T01:04:37.935Z,4.3
2016-04-18T01:04:47.938Z,4.28
2016-04-18T01:04:57.938Z,4.28
2016-04-18T01:05:07.938Z,4.34
2016-04-18T01:05:17.954Z,4.3
2016-04-18T01:05:27.954Z,4.31
2016-04-18T01:05:37.954Z,4.32
2016-04-18T01:05:47.957Z,4.34
2016-04-18T01:05:57.957Z,4.31
2016-04-18T01:06:07.972Z,4.3
2016-04-18T01:06:17.972Z,4.3
2016-04-18T01:06:27.972Z,4.31
2016-04-18T01:06:37.972Z,4.39
2016-04-18T01:06:47.990Z,4.36
2016-04-18T01:06:57.990Z,4.39
2016-04-18T01:07:07.990Z,4.3
2016-04-18T01:07:17.990Z,4.28
2016-04-18T01:07:28.006Z,4.39
2016-04-18T01:07:38.006Z,4.39
2016-04-18T01:07:48.009Z,4.32
2016-04-18T01:07:58.009Z,4.3
2016-04-18T01:08:08.024Z,4.36
2016-04-18T01:08:18.024Z,4.27
2016-04-18T01:08:28.024Z,4.39
2016-04-18T01:08:38.040Z,4.34
2016-04-18T01:08:48.073Z,4.34
2016-04-18T01:08:58.120Z,4.36
2016-04-18T01:09:08.042Z,4.43
2016-04-18T01:09:18.042Z,4.38
2016-04-18T01:09:28.042Z,4.31
2016-04-18T01:09:38.058Z,4.32
2016-04-18T01:09:48.061Z,4.38
2016-04-18T01:09:58.061Z,4.32
2016-04-18T01:10:08.076Z,4.34
2016-04-18T01:10:18.076Z,4.31
2016-04-18T01:10:28.076Z,4.32
2016-04-18T01:10:38.076Z,4.36
2016-04-18T01:10:48.079Z,4.31
2016-04-18T01:10:58.095Z,4.3
2016-04-18T01:11:08.095Z,4.34
2016-04-18T01:11:18.095Z,4.22
2016-04-18T01:11:28.110Z,4.31
2016-04-18T01:11:38.110Z,4.43
2016-04-18T01:11:48.113Z,4.31
2016-04-18T01:11:58.129Z,4.24
2016-04-18T01:12:08.129Z,4.25
2016-04-18T01:12:18.129Z,4.27
2016-04-18T01:12:28.129Z,4.22
2016-04-18T01:12:38.129Z,4.25
2016-04-18T01:12:48.131Z,4.28
2016-04-18T01:12:58.147Z,4.38
2016-04-18T01:13:08.162Z,4.16
2016-04-18T01:13:18.147Z,4.24
2016-04-18T01:13:28.162Z,4.31
2016-04-18T01:13:38.162Z,4.32
2016-04-18T01:13:48.165Z,4.22
2016-04-18T01:13:58.165Z,4.24
2016-04-18T01:14:08.181Z,4.3
2016-04-18T01:14:18.181Z,4.21
2016-04-18T01:14:28.181Z,4.22
2016-04-18T01:14:38.181Z,4.24
2016-04-18T01:14:48.183Z,4.21
2016-04-18T01:14:58.199Z,4.21
2016-04-18T01:15:08.199Z,4.2
2016-04-18T01:15:18.199Z,4.21
2016-04-18T01:15:28.199Z,4.2
2016-04-18T01:15:38.214Z,4.24
2016-04-18T01:15:48.217Z,4.25
2016-04-18T01:15:58.217Z,4.24
2016-04-18T01:16:08.233Z,4.2
2016-04-18T01:16:18.233Z,4.24
2016-04-18T01:16:28.233Z,4.27
2016-04-18T01:16:38.233Z,4.22
2016-04-18T01:16:48.236Z,4.24
2016-04-18T01:16:58.251Z,4.21
2016-04-18T01:17:08.251Z,4.32
2016-04-18T01:17:18.251Z,4.18
2016-04-18T01:17:28.251Z,4.21
2016-04-18T01:17:38.267Z,4.31
2016-04-18T01:17:48.269Z,4.3
2016-04-18T01:17:58.269Z,4.21
2016-04-18T01:18:08.269Z,4.21
2016-04-18T01:18:18.285Z,4.22
2016-04-18T01:18:28.285Z,4.25
2016-04-18T01:18:38.285Z,4.25
2016-04-18T01:18:48.289Z,4.25
2016-04-18T01:18:58.289Z,4.21
2016-04-18T01:19:08.304Z,4.21
2016-04-18T01:19:18.304Z,4.16
2016-04-18T01:19:28.320Z,4.14
2016-04-18T01:19:38.320Z,4.16
2016-04-18T01:19:48.322Z,4.16
2016-04-18T01:19:58.322Z,4.22
2016-04-18T01:20:08.322Z,4.21
2016-04-18T01:20:18.338Z,4.14
2016-04-18T01:20:28.338Z,4.18
2016-04-18T01:20:38.353Z,4.16
2016-04-18T01:20:48.340Z,4.18
2016-04-18T01:20:58.355Z,4.14
2016-04-18T01:21:08.355Z,4.18
2016-04-18T01:21:18.355Z,4.22
2016-04-18T01:21:28.355Z,4.16
2016-04-18T01:21:38.371Z,4.22
2016-04-18T01:21:48.375Z,4.14
2016-04-18T01:21:58.375Z,4.22
2016-04-18T01:22:08.375Z,4.2
2016-04-18T01:22:18.375Z,4.21
2016-04-18T01:22:28.390Z,4.16
2016-04-18T01:22:38.390Z,4.16
2016-04-18T01:22:48.392Z,4.18
2016-04-18T01:22:58.392Z,4.27
2016-04-18T01:23:08.408Z,4.21
2016-04-18T01:23:18.408Z,4.16
2016-04-18T01:23:28.408Z,4.2
2016-04-18T01:23:38.408Z,4.13
2016-04-18T01:23:48.566Z,4.13
2016-04-18T01:23:58.426Z,4.13
2016-04-18T01:24:08.426Z,4.18
2016-04-18T01:24:18.441Z,4.18
2016-04-18T01:24:28.441Z,4.12
2016-04-18T01:24:38.441Z,4.13
2016-04-18T01:24:48.445Z,4.14
2016-04-18T01:24:58.445Z,4.14
2016-04-18T01:25:08.461Z,4.16
2016-04-18T01:25:18.461Z,4.16
2016-04-18T01:25:28.461Z,4.28
2016-04-18T01:25:38.461Z,4.27
2016-04-18T01:25:48.480Z,4.13
2016-04-18T01:25:58.480Z,4.21
2016-04-18T01:26:08.480Z,4.2
2016-04-18T01:26:18.480Z,4.22
2016-04-18T01:26:28.495Z,4.22
2016-04-18T01:26:38.495Z,4.21
2016-04-18T01:26:48.496Z,4.14
2016-04-18T01:26:58.496Z,4.14
2016-04-18T01:27:08.512Z,4.24
2016-04-18T01:27:18.512Z,4.18
2016-04-18T01:27:28.512Z,4.13
2016-04-18T01:27:38.512Z,4.25
2016-04-18T01:27:48.531Z,4.21
2016-04-18T01:27:58.531Z,4.13
2016-04-18T01:28:08.531Z,4.16
2016-04-18T01:28:18.547Z,4.13
2016-04-18T01:28:28.547Z,4.1
2016-04-18T01:28:38.547Z,4.13
2016-04-18T01:28:48.549Z,4.18
2016-04-18T01:28:58.549Z,4.03
2016-04-18T01:29:08.549Z,4.16
2016-04-18T01:29:18.565Z,4.13
2016-04-18T01:29:28.565Z,4.14
2016-04-18T01:29:38.565Z,4.12
2016-04-18T01:29:48.583Z,4
2016-04-18T01:29:58.583Z,4.13
2016-04-18T01:30:08.583Z,4.07
2016-04-18T01:30:18.599Z,4
2016-04-18T01:30:28.599Z,4.12
2016-04-18T01:30:38.599Z,4.1
2016-04-18T01:30:48.602Z,3.99
2016-04-18T01:30:58.618Z,4.13
2016-04-18T01:31:08.602Z,4.04
2016-04-18T01:31:18.618Z,4.16
2016-04-18T01:31:28.618Z,4.06
2016-04-18T01:31:38.618Z,4.09
2016-04-18T01:31:48.635Z,4.1
2016-04-18T01:31:58.635Z,4
2016-04-18T01:32:08.635Z,3.99
2016-04-18T01:32:18.651Z,4.02
2016-04-18T01:32:28.651Z,4.06
2016-04-18T01:32:38.651Z,4.1
2016-04-18T01:32:48.654Z,4
2016-04-18T01:32:58.654Z,4
2016-04-18T01:33:08.654Z,4
2016-04-18T01:33:18.669Z,4.02
2016-04-18T01:33:28.669Z,4.09
2016-04-18T01:33:38.669Z,4
2016-04-18T01:33:48.688Z,3.99
2016-04-18T01:33:58.688Z,4.04
2016-04-18T01:34:08.688Z,3.96
2016-04-18T01:34:18.688Z,3.95
2016-04-18T01:34:28.688Z,3.99
2016-04-18T01:34:38.704Z,3.99
2016-04-18T01:34:48.707Z,3.92
2016-04-18T01:34:58.707Z,4.02
2016-04-18T01:35:08.707Z,3.91
2016-04-18T01:35:18.722Z,3.91
2016-04-18T01:35:28.722Z,3.91
2016-04-18T01:35:38.722Z,3.91
2016-04-18T01:35:48.740Z,3.95
2016-04-18T01:35:58.740Z,4.03
2016-04-18T01:36:08.740Z,3.91
2016-04-18T01:36:18.740Z,3.91
2016-04-18T01:36:28.740Z,3.89
2016-04-18T01:36:38.756Z,3.92
2016-04-18T01:36:48.759Z,3.89
2016-04-18T01:36:58.759Z,3.95
2016-04-18T01:37:08.759Z,3.86
2016-04-18T01:37:18.759Z,3.92
2016-04-18T01:37:28.774Z,3.88
2016-04-18T01:37:38.774Z,3.94
2016-04-18T01:37:48.776Z,3.91
2016-04-18T01:37:58.792Z,3.95
2016-04-18T01:38:08.792Z,3.84
2016-04-18T01:38:18.792Z,3.85
2016-04-18T01:38:28.807Z,3.94
2016-04-18T01:38:38.807Z,3.89
2016-04-18T01:38:48.842Z,3.94
2016-04-18T01:38:58.826Z,3.88
2016-04-18T01:39:08.810Z,3.91
2016-04-18T01:39:18.810Z,3.92
2016-04-18T01:39:28.826Z,3.94
2016-04-18T01:39:38.826Z,4
2016-04-18T01:39:48.844Z,3.94
2016-04-18T01:39:58.844Z,3.91
2016-04-18T01:40:08.844Z,3.89
2016-04-18T01:40:18.844Z,3.95
2016-04-18T01:40:28.844Z,3.91
2016-04-18T01:40:38.844Z,3.91
2016-04-18T01:40:48.863Z,3.89
2016-04-18T01:40:58.863Z,3.88
2016-04-18T01:41:08.863Z,3.88
2016-04-18T01:41:18.863Z,3.86
2016-04-18T01:41:28.879Z,3.82
2016-04-18T01:41:38.879Z,3.77
2016-04-18T01:41:48.881Z,3.82
2016-04-18T01:41:58.881Z,3.82
2016-04-18T01:42:08.897Z,3.82
2016-04-18T01:42:18.912Z,3.81
2016-04-18T01:42:28.897Z,3.86
2016-04-18T01:42:38.912Z,3.89
2016-04-18T01:42:48.915Z,3.91
2016-04-18T01:42:58.915Z,3.81
2016-04-18T01:43:08.915Z,3.78
2016-04-18T01:43:18.915Z,3.78
2016-04-18T01:43:28.931Z,3.85
2016-04-18T01:43:38.931Z,3.85
2016-04-18T01:43:48.934Z,3.84
2016-04-18T01:43:58.934Z,3.89
2016-04-18T01:44:08.934Z,3.86
2016-04-18T01:44:18.949Z,3.91
2016-04-18T01:44:28.949Z,3.88
2016-04-18T01:44:38.949Z,3.76
2016-04-18T01:44:48.968Z,3.84
2016-04-18T01:44:58.968Z,3.82
2016-04-18T01:45:08.968Z,3.82
2016-04-18T01:45:18.968Z,3.86
2016-04-18T01:45:28.984Z,3.86
2016-04-18T01:45:38.984Z,3.81
2016-04-18T01:45:48.986Z,3.92
2016-04-18T01:45:58.986Z,3.89
2016-04-18T01:46:09.001Z,3.76
2016-04-18T01:46:19.001Z,3.84
2016-04-18T01:46:29.001Z,3.84
2016-04-18T01:46:39.001Z,3.84
2016-04-18T01:46:49.004Z,3.86
2016-04-18T01:46:59.020Z,3.85
2016-04-18T01:47:09.020Z,3.7
2016-04-18T01:47:19.020Z,3.74
2016-04-18T01:47:29.036Z,3.92
2016-04-18T01:47:39.036Z,3.78
2016-04-18T01:47:49.038Z,3.77
2016-04-18T01:47:59.038Z,3.76
2016-04-18T01:48:09.038Z,3.76
2016-04-18T01:48:19.053Z,3.82
2016-04-18T01:48:29.053Z,3.78
2016-04-18T01:48:39.053Z,3.76
2016-04-18T01:48:49.072Z,3.81
2016-04-18T01:48:59.072Z,3.84
2016-04-18T01:49:09.072Z,3.89
2016-04-18T01:49:19.072Z,3.82
2016-04-18T01:49:29.072Z,3.7
2016-04-18T01:49:39.087Z,3.84
2016-04-18T01:49:49.089Z,3.73
2016-04-18T01:49:59.089Z,3.77
2016-04-18T01:50:09.089Z,3.78
2016-04-18T01:50:19.089Z,3.78
2016-04-18T01:50:29.105Z,3.74
2016-04-18T01:50:39.105Z,3.81
2016-04-18T01:50:49.108Z,3.77
2016-04-18T01:50:59.124Z,3.81
2016-04-18T01:51:09.124Z,3.88
2016-04-18T01:51:19.124Z,3.77
2016-04-18T01:51:29.124Z,3.81
2016-04-18T01:51:39.139Z,3.68
2016-04-18T01:51:49.142Z,3.76
2016-04-18T01:51:59.142Z,3.77
2016-04-18T01:52:09.142Z,3.74
2016-04-18T01:52:19.142Z,3.81
2016-04-18T01:52:29.158Z,3.74
2016-04-18T01:52:39.158Z,3.77
2016-04-18T01:52:49.161Z,3.82
2016-04-18T01:52:59.161Z,3.86
2016-04-18T01:53:09.177Z,3.77
2016-04-18T01:53:19.177Z,3.84
2016-04-18T01:53:29.177Z,3.77
2016-04-18T01:53:39.192Z,3.74
2016-04-18T01:53:49.194Z,3.81
2016-04-18T01:53:59.194Z,3.74
2016-04-18T01:54:09.210Z,3.82
2016-04-18T01:54:19.194Z,3.77
2016-04-18T01:54:29.210Z,3.82
2016-04-18T01:54:39.210Z,3.74
2016-04-18T01:54:49.213Z,3.71
2016-04-18T01:54:59.228Z,3.81
2016-04-18T01:55:09.228Z,3.81
2016-04-18T01:55:19.228Z,3.82
2016-04-18T01:55:29.228Z,3.85
2016-04-18T01:55:39.228Z,3.78
2016-04-18T01:55:49.247Z,3.77
2016-04-18T01:55:59.247Z,3.82
2016-04-18T01:56:09.247Z,3.77
2016-04-18T01:56:19.263Z,3.81
2016-04-18T01:56:29.263Z,3.68
2016-04-18T01:56:39.263Z,3.78
2016-04-18T01:56:49.266Z,3.78
2016-04-18T01:56:59.266Z,3.82
2016-04-18T01:57:09.266Z,3.71
2016-04-18T01:57:19.281Z,3.78
2016-04-18T01:57:29.281Z,3.66
2016-04-18T01:57:39.281Z,3.67
2016-04-18T01:57:49.299Z,3.81
2016-04-18T01:57:59.299Z,3.76
2016-04-18T01:58:09.299Z,3.78
2016-04-18T01:58:19.299Z,3.77
2016-04-18T01:58:29.299Z,3.78
2016-04-18T01:58:39.315Z,3.68
2016-04-18T01:58:49.318Z,3.63
2016-04-18T01:58:59.318Z,3.73
2016-04-18T01:59:09.318Z,3.76
2016-04-18T01:59:19.333Z,3.77
2016-04-18T01:59:29.333Z,3.74
2016-04-18T01:59:39.333Z,3.71
2016-04-18T01:59:49.335Z,3.73
2016-04-18T01:59:59.351Z,3.7
2016-04-18T02:00:09.351Z,3.67
2016-04-18T02:00:19.351Z,3.63
2016-04-18T02:00:29.366Z,3.63
2016-04-18T02:00:39.366Z,3.71
2016-04-18T02:00:49.369Z,3.71
2016-04-18T02:00:59.369Z,3.74
2016-04-18T02:01:09.369Z,3.71
2016-04-18T02:01:19.385Z,3.67
2016-04-18T02:01:29.385Z,3.76
2016-04-18T02:01:39.385Z,3.76
2016-04-18T02:01:49.388Z,3.56
2016-04-18T02:01:59.404Z,3.64
2016-04-18T02:02:09.404Z,3.68
2016-04-18T02:02:19.404Z,3.7
2016-04-18T02:02:29.404Z,3.67
2016-04-18T02:02:39.419Z,3.67
2016-04-18T02:02:49.421Z,3.68
2016-04-18T02:02:59.421Z,3.67
2016-04-18T02:03:09.421Z,3.63
2016-04-18T02:03:19.437Z,3.7
2016-04-18T02:03:29.437Z,3.68
2016-04-18T02:03:39.437Z,3.68
2016-04-18T02:03:49.441Z,3.7
2016-04-18T02:03:59.457Z,3.61
2016-04-18T02:04:09.457Z,3.68
2016-04-18T02:04:19.457Z,3.63
2016-04-18T02:04:29.457Z,3.67
2016-04-18T02:04:39.472Z,3.67
2016-04-18T02:04:49.474Z,3.66
2016-04-18T02:04:59.474Z,3.71
2016-04-18T02:05:09.474Z,3.68
2016-04-18T02:05:19.474Z,3.68
2016-04-18T02:05:29.490Z,3.67
2016-04-18T02:05:39.490Z,3.73
2016-04-18T02:05:49.492Z,3.67
2016-04-18T02:05:59.492Z,3.66
2016-04-18T02:06:09.507Z,3.71
2016-04-18T02:06:19.507Z,3.68
2016-04-18T02:06:29.507Z,3.68
2016-04-18T02:06:39.523Z,3.7
2016-04-18T02:06:49.526Z,3.7
2016-04-18T02:06:59.526Z,3.73
2016-04-18T02:07:09.526Z,3.68
2016-04-18T02:07:19.542Z,3.68
2016-04-18T02:07:29.542Z,3.67
2016-04-18T02:07:39.542Z,3.63
2016-04-18T02:07:49.546Z,3.68
2016-04-18T02:07:59.546Z,3.71
2016-04-18T02:08:09.561Z,3.78
2016-04-18T02:08:19.561Z,3.66
2016-04-18T02:08:29.561Z,3.67
2016-04-18T02:08:39.561Z,3.66
2016-04-18T02:08:49.579Z,3.68
2016-04-18T02:08:59.579Z,3.73
2016-04-18T02:09:09.595Z,3.63
2016-04-18T02:09:19.579Z,3.66
2016-04-18T02:09:29.579Z,3.68
2016-04-18T02:09:39.595Z,3.67
2016-04-18T02:09:49.597Z,3.7
2016-04-18T02:09:59.597Z,3.64
2016-04-18T02:10:09.612Z,3.58
2016-04-18T02:10:19.612Z,3.67
2016-04-18T02:10:29.612Z,3.68
2016-04-18T02:10:39.628Z,3.66
2016-04-18T02:10:49.615Z,3.64
2016-04-18T02:10:59.631Z,3.66
2016-04-18T02:11:09.631Z,3.64
2016-04-18T02:11:19.631Z,3.63
2016-04-18T02:11:29.646Z,3.7
2016-04-18T02:11:39.646Z,3.64
2016-04-18T02:11:49.649Z,3.68
2016-04-18T02:11:59.649Z,3.67
2016-04-18T02:12:09.649Z,3.71
2016-04-18T02:12:19.665Z,3.64
2016-04-18T02:12:29.665Z,3.63
2016-04-18T02:12:39.665Z,3.71
2016-04-18T02:12:49.668Z,3.63
2016-04-18T02:12:59.668Z,3.74
2016-04-18T02:13:09.684Z,3.58
2016-04-18T02:13:19.684Z,3.66
2016-04-18T02:13:29.684Z,3.64
2016-04-18T02:13:39.699Z,3.64
2016-04-18T02:13:49.701Z,3.67